Relevés horaires Schaffhausen (Suisse)


Relevés horaires à Schaffhausen - Lundi 02 Déc. 2002
Heure UTC1 Température [°C] Vent [km/h] Hum. [%] Pres.4 [hPa] Visi. [Km] Nébu. [octa] Préc.5 [mm] Cond.
2m. Res. Ros. Dir.2 Vit. Moy. Raf.3
23:00 3.7 3.7 2.3 SO 1.9 -- -- 91 1009 -- -- -- --
22:00 3.6 2.3 1.8 O 5.6 -- -- 88 1008.9 -- -- -- --
21:00 3.8 3.8 2.3 SO 1.9 -- -- 90 1008.7 -- -- -- --
20:00 3.1 1.1 1.9 OSO 7.4 -- -- 92 1008.6 -- -- -- --
19:00 4.5 1.8 1.5 SO 11.1 -- -- 81 1008.2 -- -- -- --
18:00 4.6 1.9 1.5 SO 11.1 -- -- 80 1007.9 -- -- 0/0h
--
17:00 4.9 3.2 1.5 SO 7.4 -- -- 79 1007.9 -- -- -- --
16:00 5.2 2 1.4 SO 14.8 -- -- 76 1007.5 -- -- -- --
15:00 5.8 3.4 1.6 SO 11.1 -- -- 74 1007.5 -- -- -- --
14:00 6.1 3.8 1.9 SO 11.1 -- -- 74 1007.8 -- -- -- --
13:00 6.0 4 2.0 SO 9.3 -- -- 75 1008.2 -- -- -- --
12:00 6.0 4 2.1 OSO 9.3 -- 44.4 76 1008.7(-0.7/3h) -- -- 0/0h
--
11:00 5.7 2.9 2.9 OSO 13.0 -- -- 82 1009.3 -- -- -- --
10:00 5.2 1.3 2.3 O 20.4 -- -- 82 1009.7 -- -- -- --
09:00 5.3 2.1 3.1 SO 14.8 -- 44.4 86 1009.6(1.5/3h) -- -- -- --
08:00 4.6 2.3 2.9 SO 9.3 -- -- 89 1009.3 -- -- -- --
07:00 5.0 2.1 3.1 OSO 13.0 -- -- 87 1008.4 -- -- -- --
06:00 5.3 1.2 3.0 OSO 22.2 -- 44.4 85 1008(1.1/3h) -- -- 4/12h
--
05:00 5.9 2 4.2 OSO 22.2 -- -- 89 1007.5 -- -- -- --
04:00 5.3 1.9 4.2 O 16.7 -- -- 93 1006.9 -- -- -- --
03:00 4.5 1.5 3.7 SO 13.0 -- -- 95 1007 -- -- -- --
02:00 4.3 1.2 3.7 SSO 13.0 -- -- 96 1007.2 -- -- -- --
01:00 3.4 1.4 2.7 S 7.4 -- -- 95 1007.6 -- -- -- --
00:00 3.1 -0.6 2.5 SO 14.8 -- -- 96 1008.2(-1.5/3h) -- -- -- --

1 Coordinated Universal Time. Actuellement il est 23:00 locale et 21:00 UTC.

2 Le vent souffle depuis la direction indiquée vers la direction oposée.

3 Les rafales max. sont disponible 40 min après l'heure du relevé.

4 Pour les stations d'altitude (plus de 600m) le géopotentiel du niveau le plus proche de la pression obligatoire est indiqué.

5 Les stations disposant d'un diffuseur peuvent indiquer "trace". Cela signifie que des précipitations ont touchés le sol mais que la quantité est inférieure à 0.1 mm.

Copyright

Les données affichées sur cette page sont la propriété exclusive de Météo Suisse.

Récapitulatif de la journée
Température [°C] Vent [km/h] Ensoleillement4 [h] Precipitations totale5 [mm] Pression [Hpa]
Min1 Max.2 Moy.3 Max. Min Max.
2.6 -- 0 44.4 0 h 0 min 0 1006.9 1009.7

1 Température minimale relevée entre 18:00 UTC la veille et 18:00 UTC le jour donné.

2 Température maximale relevée entre 06:00 UTC le jour donné et 06:00 UTC le lendemain.

3 Vent moyen de la journée basé sur les relevés horaires.

4 Ensoleillement en heures relevé entre 06:00 UTC la veille et 06:00 UTC le jour donné.

5 Précipitations totales tombées entre 06:00 UTC la jour donné et 06:00 UTC le lendemain.

Graphiques horaires